sensor_id;sensor_type;location;lat;lon;timestamp;temperature;humidity
29731;DHT22;16639;51.488;0.152;2023-09-19T00:00:48;15.30;99.90
29731;DHT22;16639;51.488;0.152;2023-09-19T00:03:16;15.20;99.90
29731;DHT22;16639;51.488;0.152;2023-09-19T00:05:44;15.20;99.90
29731;DHT22;16639;51.488;0.152;2023-09-19T00:08:13;15.20;99.90
29731;DHT22;16639;51.488;0.152;2023-09-19T00:10:43;16.20;99.90
29731;DHT22;16639;51.488;0.152;2023-09-19T00:13:11;15.20;99.90
29731;DHT22;16639;51.488;0.152;2023-09-19T00:15:44;15.20;99.90
29731;DHT22;16639;51.488;0.152;2023-09-19T00:18:21;15.20;99.90
29731;DHT22;16639;51.488;0.152;2023-09-19T00:20:50;15.30;99.90
29731;DHT22;16639;51.488;0.152;2023-09-19T00:23:20;15.20;99.90
29731;DHT22;16639;51.488;0.152;2023-09-19T00:25:48;15.30;99.90
29731;DHT22;16639;51.488;0.152;2023-09-19T00:28:18;15.20;99.90
29731;DHT22;16639;51.488;0.152;2023-09-19T00:30:47;15.20;99.90
29731;DHT22;16639;51.488;0.152;2023-09-19T00:33:18;15.20;99.90
29731;DHT22;16639;51.488;0.152;2023-09-19T00:35:51;15.20;99.90
29731;DHT22;16639;51.488;0.152;2023-09-19T00:38:20;15.20;99.90
29731;DHT22;16639;51.488;0.152;2023-09-19T00:40:54;15.20;99.90
29731;DHT22;16639;51.488;0.152;2023-09-19T00:43:27;15.20;99.90
29731;DHT22;16639;51.488;0.152;2023-09-19T00:46:03;15.20;99.90
29731;DHT22;16639;51.488;0.152;2023-09-19T00:48:40;15.20;99.90
29731;DHT22;16639;51.488;0.152;2023-09-19T00:51:08;15.20;99.90
29731;DHT22;16639;51.488;0.152;2023-09-19T00:53:36;15.10;99.90
29731;DHT22;16639;51.488;0.152;2023-09-19T00:56:06;15.20;99.90
29731;DHT22;16639;51.488;0.152;2023-09-19T00:58:35;15.20;99.90
29731;DHT22;16639;51.488;0.152;2023-09-19T01:01:05;15.20;99.90
29731;DHT22;16639;51.488;0.152;2023-09-19T01:03:34;15.30;99.90
29731;DHT22;16639;51.488;0.152;2023-09-19T01:06:03;15.30;99.90
29731;DHT22;16639;51.488;0.152;2023-09-19T01:08:31;15.30;99.90
29731;DHT22;16639;51.488;0.152;2023-09-19T01:13:56;15.30;99.90
29731;DHT22;16639;51.488;0.152;2023-09-19T01:16:35;15.30;99.90
29731;DHT22;16639;51.488;0.152;2023-09-19T01:22:19;15.30;99.90
29731;DHT22;16639;51.488;0.152;2023-09-19T01:30:13;15.20;99.90
29731;DHT22;16639;51.488;0.152;2023-09-19T01:32:41;15.20;99.90
29731;DHT22;16639;51.488;0.152;2023-09-19T01:35:10;15.20;99.90
29731;DHT22;16639;51.488;0.152;2023-09-19T01:37:43;15.20;99.90
29731;DHT22;16639;51.488;0.152;2023-09-19T01:40:17;15.20;99.90
29731;DHT22;16639;51.488;0.152;2023-09-19T01:48:25;15.20;99.90
29731;DHT22;16639;51.488;0.152;2023-09-19T01:51:00;15.20;99.90
29731;DHT22;16639;51.488;0.152;2023-09-19T01:54:00;15.20;99.90
29731;DHT22;16639;51.488;0.152;2023-09-19T01:56:38;15.10;99.90
29731;DHT22;16639;51.488;0.152;2023-09-19T01:59:13;15.20;99.90
29731;DHT22;16639;51.488;0.152;2023-09-19T02:01:45;14.70;99.90
29731;DHT22;16639;51.488;0.152;2023-09-19T02:04:13;15.10;99.90
29731;DHT22;16639;51.488;0.152;2023-09-19T02:06:41;15.10;99.90
29731;DHT22;16639;51.488;0.152;2023-09-19T02:09:09;15.10;99.90
29731;DHT22;16639;51.488;0.152;2023-09-19T02:11:36;15.10;99.90
29731;DHT22;16639;51.488;0.152;2023-09-19T02:14:04;15.10;99.90
29731;DHT22;16639;51.488;0.152;2023-09-19T02:16:36;15.10;99.90
29731;DHT22;16639;51.488;0.152;2023-09-19T02:19:03;15.10;99.90
29731;DHT22;16639;51.488;0.152;2023-09-19T02:21:38;15.10;99.90
29731;DHT22;16639;51.488;0.152;2023-09-19T02:24:07;15.10;99.90
29731;DHT22;16639;51.488;0.152;2023-09-19T02:26:35;15.10;99.90
29731;DHT22;16639;51.488;0.152;2023-09-19T02:29:04;15.00;99.90
29731;DHT22;16639;51.488;0.152;2023-09-19T02:31:32;15.00;99.90
29731;DHT22;16639;51.488;0.152;2023-09-19T02:33:59;15.10;99.90
29731;DHT22;16639;51.488;0.152;2023-09-19T02:36:27;15.00;99.90
29731;DHT22;16639;51.488;0.152;2023-09-19T02:38:54;15.00;99.90
29731;DHT22;16639;51.488;0.152;2023-09-19T02:41:22;15.00;99.90
29731;DHT22;16639;51.488;0.152;2023-09-19T02:43:49;15.00;99.90
29731;DHT22;16639;51.488;0.152;2023-09-19T02:46:17;15.00;99.90
29731;DHT22;16639;51.488;0.152;2023-09-19T02:48:48;15.10;99.90
29731;DHT22;16639;51.488;0.152;2023-09-19T02:51:15;15.00;99.90
29731;DHT22;16639;51.488;0.152;2023-09-19T02:53:43;15.00;99.90
29731;DHT22;16639;51.488;0.152;2023-09-19T02:56:10;15.00;99.90
29731;DHT22;16639;51.488;0.152;2023-09-19T02:58:40;15.00;99.90
29731;DHT22;16639;51.488;0.152;2023-09-19T03:01:11;15.00;99.90
29731;DHT22;16639;51.488;0.152;2023-09-19T03:03:40;15.10;99.90
29731;DHT22;16639;51.488;0.152;2023-09-19T03:06:08;15.10;99.90
29731;DHT22;16639;51.488;0.152;2023-09-19T03:08:39;15.00;99.90
29731;DHT22;16639;51.488;0.152;2023-09-19T03:11:09;15.00;99.90
29731;DHT22;16639;51.488;0.152;2023-09-19T03:13:38;15.00;99.90
29731;DHT22;16639;51.488;0.152;2023-09-19T03:16:08;15.20;99.90
29731;DHT22;16639;51.488;0.152;2023-09-19T03:18:39;15.00;99.90
29731;DHT22;16639;51.488;0.152;2023-09-19T03:21:07;15.00;99.90
29731;DHT22;16639;51.488;0.152;2023-09-19T03:23:34;13.90;99.90
29731;DHT22;16639;51.488;0.152;2023-09-19T03:26:02;14.90;99.90
29731;DHT22;16639;51.488;0.152;2023-09-19T03:28:33;15.10;99.90
29731;DHT22;16639;51.488;0.152;2023-09-19T03:31:02;15.00;99.90
29731;DHT22;16639;51.488;0.152;2023-09-19T03:36:52;15.00;99.90
29731;DHT22;16639;51.488;0.152;2023-09-19T03:39:19;15.00;99.90
29731;DHT22;16639;51.488;0.152;2023-09-19T03:41:47;15.00;99.90
29731;DHT22;16639;51.488;0.152;2023-09-19T03:44:15;14.90;99.90
29731;DHT22;16639;51.488;0.152;2023-09-19T03:46:42;14.90;99.90
29731;DHT22;16639;51.488;0.152;2023-09-19T03:49:10;14.90;99.90
29731;DHT22;16639;51.488;0.152;2023-09-19T03:51:37;14.90;99.90
29731;DHT22;16639;51.488;0.152;2023-09-19T03:54:08;14.90;99.90
29731;DHT22;16639;51.488;0.152;2023-09-19T03:56:36;14.90;99.90
29731;DHT22;16639;51.488;0.152;2023-09-19T03:59:03;14.90;99.90
29731;DHT22;16639;51.488;0.152;2023-09-19T04:01:31;14.90;99.90
29731;DHT22;16639;51.488;0.152;2023-09-19T04:04:00;14.90;99.90
29731;DHT22;16639;51.488;0.152;2023-09-19T04:06:35;14.90;99.90
29731;DHT22;16639;51.488;0.152;2023-09-19T04:09:04;15.70;99.90
29731;DHT22;16639;51.488;0.152;2023-09-19T04:11:34;14.90;99.90
29731;DHT22;16639;51.488;0.152;2023-09-19T04:14:03;14.80;99.90
29731;DHT22;16639;51.488;0.152;2023-09-19T04:16:31;14.80;99.90
29731;DHT22;16639;51.488;0.152;2023-09-19T04:18:58;14.80;99.90
29731;DHT22;16639;51.488;0.152;2023-09-19T04:21:26;14.80;99.90
29731;DHT22;16639;51.488;0.152;2023-09-19T04:23:55;14.80;99.90
29731;DHT22;16639;51.488;0.152;2023-09-19T04:26:22;14.80;99.90
29731;DHT22;16639;51.488;0.152;2023-09-19T04:28:50;16.00;99.90
29731;DHT22;16639;51.488;0.152;2023-09-19T04:31:18;14.80;99.90
29731;DHT22;16639;51.488;0.152;2023-09-19T04:33:47;14.70;99.90
29731;DHT22;16639;51.488;0.152;2023-09-19T04:36:14;14.80;99.90
29731;DHT22;16639;51.488;0.152;2023-09-19T04:39:02;14.80;99.90
29731;DHT22;16639;51.488;0.152;2023-09-19T04:41:32;14.80;99.90
29731;DHT22;16639;51.488;0.152;2023-09-19T04:44:00;14.80;99.90
29731;DHT22;16639;51.488;0.152;2023-09-19T04:46:27;14.80;99.90
29731;DHT22;16639;51.488;0.152;2023-09-19T04:48:55;14.80;99.90
29731;DHT22;16639;51.488;0.152;2023-09-19T04:51:22;14.80;99.90
29731;DHT22;16639;51.488;0.152;2023-09-19T04:53:50;14.80;99.90
29731;DHT22;16639;51.488;0.152;2023-09-19T04:56:19;14.80;99.90
29731;DHT22;16639;51.488;0.152;2023-09-19T04:58:48;14.80;99.90
29731;DHT22;16639;51.488;0.152;2023-09-19T05:01:15;14.80;99.90
29731;DHT22;16639;51.488;0.152;2023-09-19T05:03:43;14.90;99.90
29731;DHT22;16639;51.488;0.152;2023-09-19T05:06:12;14.90;99.90
29731;DHT22;16639;51.488;0.152;2023-09-19T05:08:39;14.90;99.90
29731;DHT22;16639;51.488;0.152;2023-09-19T05:11:07;14.90;99.90
29731;DHT22;16639;51.488;0.152;2023-09-19T05:13:36;15.00;99.90
29731;DHT22;16639;51.488;0.152;2023-09-19T05:16:03;15.00;99.90
29731;DHT22;16639;51.488;0.152;2023-09-19T05:18:31;15.00;99.90
29731;DHT22;16639;51.488;0.152;2023-09-19T05:21:02;15.40;99.90
29731;DHT22;16639;51.488;0.152;2023-09-19T05:23:29;15.00;99.90
29731;DHT22;16639;51.488;0.152;2023-09-19T05:25:58;15.00;99.90
29731;DHT22;16639;51.488;0.152;2023-09-19T05:28:27;15.00;99.90
29731;DHT22;16639;51.488;0.152;2023-09-19T05:30:54;15.00;99.90
29731;DHT22;16639;51.488;0.152;2023-09-19T05:33:22;15.00;99.90
29731;DHT22;16639;51.488;0.152;2023-09-19T05:35:50;15.10;99.90
29731;DHT22;16639;51.488;0.152;2023-09-19T05:38:17;15.10;99.90
29731;DHT22;16639;51.488;0.152;2023-09-19T05:40:47;15.10;99.90
29731;DHT22;16639;51.488;0.152;2023-09-19T05:43:16;15.20;99.90
29731;DHT22;16639;51.488;0.152;2023-09-19T05:45:45;15.20;99.90
29731;DHT22;16639;51.488;0.152;2023-09-19T05:48:14;15.20;99.90
29731;DHT22;16639;51.488;0.152;2023-09-19T05:50:44;15.20;99.90
29731;DHT22;16639;51.488;0.152;2023-09-19T05:53:15;15.20;99.90
29731;DHT22;16639;51.488;0.152;2023-09-19T05:55:43;15.30;99.90
29731;DHT22;16639;51.488;0.152;2023-09-19T05:58:11;15.30;99.90
29731;DHT22;16639;51.488;0.152;2023-09-19T06:00:42;16.60;99.90
29731;DHT22;16639;51.488;0.152;2023-09-19T06:03:12;15.30;99.90
29731;DHT22;16639;51.488;0.152;2023-09-19T06:05:42;15.40;99.90
29731;DHT22;16639;51.488;0.152;2023-09-19T06:08:09;15.40;99.90
29731;DHT22;16639;51.488;0.152;2023-09-19T06:10:36;15.40;99.90
29731;DHT22;16639;51.488;0.152;2023-09-19T06:13:04;15.50;99.90
29731;DHT22;16639;51.488;0.152;2023-09-19T06:15:33;15.60;99.90
29731;DHT22;16639;51.488;0.152;2023-09-19T06:18:03;15.50;99.90
29731;DHT22;16639;51.488;0.152;2023-09-19T06:20:32;15.60;99.90
29731;DHT22;16639;51.488;0.152;2023-09-19T06:23:02;15.60;99.90
29731;DHT22;16639;51.488;0.152;2023-09-19T06:25:30;15.60;99.90
29731;DHT22;16639;51.488;0.152;2023-09-19T06:27:57;15.60;99.90
29731;DHT22;16639;51.488;0.152;2023-09-19T06:30:25;15.60;99.90
29731;DHT22;16639;51.488;0.152;2023-09-19T06:32:57;15.70;99.90
29731;DHT22;16639;51.488;0.152;2023-09-19T06:35:26;15.70;99.90
29731;DHT22;16639;51.488;0.152;2023-09-19T06:37:54;15.80;99.90
29731;DHT22;16639;51.488;0.152;2023-09-19T06:40:21;15.80;99.90
29731;DHT22;16639;51.488;0.152;2023-09-19T06:42:52;15.80;99.90
29731;DHT22;16639;51.488;0.152;2023-09-19T06:45:21;15.80;99.90
29731;DHT22;16639;51.488;0.152;2023-09-19T06:47:51;15.80;99.90
29731;DHT22;16639;51.488;0.152;2023-09-19T06:50:23;15.90;99.90
29731;DHT22;16639;51.488;0.152;2023-09-19T06:52:52;15.80;99.90
29731;DHT22;16639;51.488;0.152;2023-09-19T06:55:22;15.90;99.90
29731;DHT22;16639;51.488;0.152;2023-09-19T06:57:55;15.80;99.90
29731;DHT22;16639;51.488;0.152;2023-09-19T07:00:23;15.90;99.90
29731;DHT22;16639;51.488;0.152;2023-09-19T07:03:02;15.90;99.90
29731;DHT22;16639;51.488;0.152;2023-09-19T07:05:32;16.00;99.90
29731;DHT22;16639;51.488;0.152;2023-09-19T07:08:00;16.10;99.90
29731;DHT22;16639;51.488;0.152;2023-09-19T07:10:30;16.00;99.90
29731;DHT22;16639;51.488;0.152;2023-09-19T07:13:05;16.10;99.90
29731;DHT22;16639;51.488;0.152;2023-09-19T07:15:37;16.10;99.90
29731;DHT22;16639;51.488;0.152;2023-09-19T07:18:15;16.20;99.90
29731;DHT22;16639;51.488;0.152;2023-09-19T07:20:45;16.20;99.90
29731;DHT22;16639;51.488;0.152;2023-09-19T07:23:20;16.30;99.90
29731;DHT22;16639;51.488;0.152;2023-09-19T07:25:51;16.20;99.90
29731;DHT22;16639;51.488;0.152;2023-09-19T07:28:18;16.30;99.90
29731;DHT22;16639;51.488;0.152;2023-09-19T07:30:46;16.30;99.90
29731;DHT22;16639;51.488;0.152;2023-09-19T07:33:14;16.40;99.90
29731;DHT22;16639;51.488;0.152;2023-09-19T07:35:46;16.50;99.90
29731;DHT22;16639;51.488;0.152;2023-09-19T07:38:14;16.50;99.90
29731;DHT22;16639;51.488;0.152;2023-09-19T07:40:41;16.50;99.90
29731;DHT22;16639;51.488;0.152;2023-09-19T07:43:12;16.60;99.90
29731;DHT22;16639;51.488;0.152;2023-09-19T07:45:42;16.60;99.90
29731;DHT22;16639;51.488;0.152;2023-09-19T07:48:10;16.60;99.90
29731;DHT22;16639;51.488;0.152;2023-09-19T07:50:42;16.70;99.90
29731;DHT22;16639;51.488;0.152;2023-09-19T07:53:12;16.80;99.90
29731;DHT22;16639;51.488;0.152;2023-09-19T07:55:41;16.80;99.90
29731;DHT22;16639;51.488;0.152;2023-09-19T07:58:11;17.10;99.90
29731;DHT22;16639;51.488;0.152;2023-09-19T08:00:40;16.90;99.90
29731;DHT22;16639;51.488;0.152;2023-09-19T08:03:11;16.80;99.90
29731;DHT22;16639;51.488;0.152;2023-09-19T08:05:44;16.90;99.90
29731;DHT22;16639;51.488;0.152;2023-09-19T08:08:13;16.80;99.90
29731;DHT22;16639;51.488;0.152;2023-09-19T08:10:42;16.80;99.90
29731;DHT22;16639;51.488;0.152;2023-09-19T08:13:13;16.80;99.90
29731;DHT22;16639;51.488;0.152;2023-09-19T08:15:46;16.90;99.90
29731;DHT22;16639;51.488;0.152;2023-09-19T08:18:15;16.90;99.90
29731;DHT22;16639;51.488;0.152;2023-09-19T08:20:48;16.90;99.90
29731;DHT22;16639;51.488;0.152;2023-09-19T08:23:17;16.90;99.90
29731;DHT22;16639;51.488;0.152;2023-09-19T08:25:48;17.00;99.90
29731;DHT22;16639;51.488;0.152;2023-09-19T08:28:16;17.00;99.90
29731;DHT22;16639;51.488;0.152;2023-09-19T08:30:50;17.00;99.90
29731;DHT22;16639;51.488;0.152;2023-09-19T08:33:19;17.00;99.90
29731;DHT22;16639;51.488;0.152;2023-09-19T08:35:47;17.00;99.90
29731;DHT22;16639;51.488;0.152;2023-09-19T08:38:14;17.00;99.90
29731;DHT22;16639;51.488;0.152;2023-09-19T08:40:42;16.90;99.90
29731;DHT22;16639;51.488;0.152;2023-09-19T08:43:11;17.00;99.90
29731;DHT22;16639;51.488;0.152;2023-09-19T08:45:38;17.00;99.90
29731;DHT22;16639;51.488;0.152;2023-09-19T08:50:53;16.80;99.90
29731;DHT22;16639;51.488;0.152;2023-09-19T08:56:10;16.90;99.90
29731;DHT22;16639;51.488;0.152;2023-09-19T08:59:04;17.00;99.90
29731;DHT22;16639;51.488;0.152;2023-09-19T09:01:32;17.00;99.90
29731;DHT22;16639;51.488;0.152;2023-09-19T09:04:01;17.00;99.90
29731;DHT22;16639;51.488;0.152;2023-09-19T09:06:29;17.10;99.90
29731;DHT22;16639;51.488;0.152;2023-09-19T09:08:57;17.50;99.90
29731;DHT22;16639;51.488;0.152;2023-09-19T09:11:25;17.30;99.90
29731;DHT22;16639;51.488;0.152;2023-09-19T09:13:53;17.30;99.90
29731;DHT22;16639;51.488;0.152;2023-09-19T09:16:20;17.40;99.90
29731;DHT22;16639;51.488;0.152;2023-09-19T09:18:49;17.40;99.90
29731;DHT22;16639;51.488;0.152;2023-09-19T09:21:25;17.40;99.90
29731;DHT22;16639;51.488;0.152;2023-09-19T09:23:53;17.40;99.90
29731;DHT22;16639;51.488;0.152;2023-09-19T09:26:53;17.50;99.90
29731;DHT22;16639;51.488;0.152;2023-09-19T09:32:24;17.60;99.90
29731;DHT22;16639;51.488;0.152;2023-09-19T09:34:54;17.70;99.90
29731;DHT22;16639;51.488;0.152;2023-09-19T09:37:27;17.70;99.90
29731;DHT22;16639;51.488;0.152;2023-09-19T09:40:00;17.80;99.90
29731;DHT22;16639;51.488;0.152;2023-09-19T09:42:47;17.70;99.90
29731;DHT22;16639;51.488;0.152;2023-09-19T09:45:20;17.80;99.90
29731;DHT22;16639;51.488;0.152;2023-09-19T09:48:02;17.80;99.90
29731;DHT22;16639;51.488;0.152;2023-09-19T09:50:48;17.80;99.90
29731;DHT22;16639;51.488;0.152;2023-09-19T09:53:29;17.90;99.90
29731;DHT22;16639;51.488;0.152;2023-09-19T09:56:03;17.90;99.90
29731;DHT22;16639;51.488;0.152;2023-09-19T09:58:51;18.00;99.90
29731;DHT22;16639;51.488;0.152;2023-09-19T10:01:23;18.00;99.90
29731;DHT22;16639;51.488;0.152;2023-09-19T10:03:57;18.10;99.90
29731;DHT22;16639;51.488;0.152;2023-09-19T10:06:25;18.10;99.90
29731;DHT22;16639;51.488;0.152;2023-09-19T10:09:08;18.10;99.90
29731;DHT22;16639;51.488;0.152;2023-09-19T10:11:47;18.00;99.90
29731;DHT22;16639;51.488;0.152;2023-09-19T10:14:26;18.10;99.90
29731;DHT22;16639;51.488;0.152;2023-09-19T10:16:59;18.10;99.90
29731;DHT22;16639;51.488;0.152;2023-09-19T10:19:43;18.20;99.90
29731;DHT22;16639;51.488;0.152;2023-09-19T10:22:14;18.30;99.90
29731;DHT22;16639;51.488;0.152;2023-09-19T10:24:45;18.40;99.90
29731;DHT22;16639;51.488;0.152;2023-09-19T10:27:29;18.40;99.90
29731;DHT22;16639;51.488;0.152;2023-09-19T10:30:08;18.40;99.90
29731;DHT22;16639;51.488;0.152;2023-09-19T10:32:40;18.50;99.90
29731;DHT22;16639;51.488;0.152;2023-09-19T10:35:11;18.50;99.90
29731;DHT22;16639;51.488;0.152;2023-09-19T10:37:41;18.50;99.90
29731;DHT22;16639;51.488;0.152;2023-09-19T10:40:13;18.50;99.90
29731;DHT22;16639;51.488;0.152;2023-09-19T10:42:44;18.40;99.90
29731;DHT22;16639;51.488;0.152;2023-09-19T10:45:15;18.50;99.90
29731;DHT22;16639;51.488;0.152;2023-09-19T10:47:46;18.50;99.90
29731;DHT22;16639;51.488;0.152;2023-09-19T10:50:20;18.50;99.90
29731;DHT22;16639;51.488;0.152;2023-09-19T10:52:53;18.60;99.90
29731;DHT22;16639;51.488;0.152;2023-09-19T10:55:35;18.80;99.90
29731;DHT22;16639;51.488;0.152;2023-09-19T10:58:06;18.90;99.90
29731;DHT22;16639;51.488;0.152;2023-09-19T11:00:53;19.00;99.90
29731;DHT22;16639;51.488;0.152;2023-09-19T11:03:22;19.00;99.90
29731;DHT22;16639;51.488;0.152;2023-09-19T11:06:09;19.00;99.90
29731;DHT22;16639;51.488;0.152;2023-09-19T11:08:52;19.00;99.90
29731;DHT22;16639;51.488;0.152;2023-09-19T11:30:38;19.10;99.90
29731;DHT22;16639;51.488;0.152;2023-09-19T11:36:16;19.00;99.90
29731;DHT22;16639;51.488;0.152;2023-09-19T11:46:28;18.90;99.90
29731;DHT22;16639;51.488;0.152;2023-09-19T11:49:06;18.90;99.90
29731;DHT22;16639;51.488;0.152;2023-09-19T11:51:41;19.00;99.90
29731;DHT22;16639;51.488;0.152;2023-09-19T11:54:14;18.90;99.90
29731;DHT22;16639;51.488;0.152;2023-09-19T11:56:55;18.90;99.90
29731;DHT22;16639;51.488;0.152;2023-09-19T11:59:30;18.80;99.90
29731;DHT22;16639;51.488;0.152;2023-09-19T12:02:07;18.90;99.90
29731;DHT22;16639;51.488;0.152;2023-09-19T12:04:40;18.90;99.90
29731;DHT22;16639;51.488;0.152;2023-09-19T12:07:15;18.80;99.90
29731;DHT22;16639;51.488;0.152;2023-09-19T12:09:45;18.90;99.90
29731;DHT22;16639;51.488;0.152;2023-09-19T12:12:24;18.80;99.90
29731;DHT22;16639;51.488;0.152;2023-09-19T12:14:56;18.80;99.90
29731;DHT22;16639;51.488;0.152;2023-09-19T12:17:42;19.30;99.90
29731;DHT22;16639;51.488;0.152;2023-09-19T12:20:11;18.80;99.90
29731;DHT22;16639;51.488;0.152;2023-09-19T12:22:45;18.80;99.90
29731;DHT22;16639;51.488;0.152;2023-09-19T12:25:14;18.80;99.90
29731;DHT22;16639;51.488;0.152;2023-09-19T12:27:48;18.90;99.90
29731;DHT22;16639;51.488;0.152;2023-09-19T12:30:28;19.00;99.90
29731;DHT22;16639;51.488;0.152;2023-09-19T12:32:55;19.00;99.90
29731;DHT22;16639;51.488;0.152;2023-09-19T12:35:31;19.00;99.90
29731;DHT22;16639;51.488;0.152;2023-09-19T12:38:03;19.00;99.90
29731;DHT22;16639;51.488;0.152;2023-09-19T12:40:32;19.00;99.90
29731;DHT22;16639;51.488;0.152;2023-09-19T12:43:01;19.00;99.90
29731;DHT22;16639;51.488;0.152;2023-09-19T12:45:32;19.00;99.90
29731;DHT22;16639;51.488;0.152;2023-09-19T12:48:26;19.00;99.90
29731;DHT22;16639;51.488;0.152;2023-09-19T12:51:12;19.10;99.90
29731;DHT22;16639;51.488;0.152;2023-09-19T12:53:45;19.10;99.90
29731;DHT22;16639;51.488;0.152;2023-09-19T12:56:40;19.00;99.90
29731;DHT22;16639;51.488;0.152;2023-09-19T12:59:13;19.00;99.90
29731;DHT22;16639;51.488;0.152;2023-09-19T13:01:42;19.00;99.90
29731;DHT22;16639;51.488;0.152;2023-09-19T13:04:20;19.00;99.90
29731;DHT22;16639;51.488;0.152;2023-09-19T13:06:53;19.00;99.90
29731;DHT22;16639;51.488;0.152;2023-09-19T13:09:23;19.00;99.90
29731;DHT22;16639;51.488;0.152;2023-09-19T13:12:02;19.00;99.90
29731;DHT22;16639;51.488;0.152;2023-09-19T13:14:30;19.10;99.90
29731;DHT22;16639;51.488;0.152;2023-09-19T13:17:08;19.00;99.90
29731;DHT22;16639;51.488;0.152;2023-09-19T13:19:51;19.00;99.90
29731;DHT22;16639;51.488;0.152;2023-09-19T13:22:41;19.00;99.90
29731;DHT22;16639;51.488;0.152;2023-09-19T13:25:31;19.00;99.90
29731;DHT22;16639;51.488;0.152;2023-09-19T13:28:00;18.90;99.90
29731;DHT22;16639;51.488;0.152;2023-09-19T13:30:31;18.90;99.90
29731;DHT22;16639;51.488;0.152;2023-09-19T13:33:09;18.90;99.90
29731;DHT22;16639;51.488;0.152;2023-09-19T13:35:38;18.90;99.90
29731;DHT22;16639;51.488;0.152;2023-09-19T13:38:08;18.80;99.90
29731;DHT22;16639;51.488;0.152;2023-09-19T13:40:39;18.90;99.90
29731;DHT22;16639;51.488;0.152;2023-09-19T13:43:09;18.90;99.90
29731;DHT22;16639;51.488;0.152;2023-09-19T13:45:38;18.80;99.90
29731;DHT22;16639;51.488;0.152;2023-09-19T13:48:09;18.70;99.90
29731;DHT22;16639;51.488;0.152;2023-09-19T13:50:38;18.70;99.90
29731;DHT22;16639;51.488;0.152;2023-09-19T13:53:09;18.70;99.90
29731;DHT22;16639;51.488;0.152;2023-09-19T13:55:37;18.70;99.90
29731;DHT22;16639;51.488;0.152;2023-09-19T13:58:05;18.60;99.90
29731;DHT22;16639;51.488;0.152;2023-09-19T14:00:34;19.00;99.90
29731;DHT22;16639;51.488;0.152;2023-09-19T14:03:10;18.60;99.90
29731;DHT22;16639;51.488;0.152;2023-09-19T14:05:38;18.50;99.90
29731;DHT22;16639;51.488;0.152;2023-09-19T14:08:06;18.50;99.90
29731;DHT22;16639;51.488;0.152;2023-09-19T14:10:34;18.50;99.90
29731;DHT22;16639;51.488;0.152;2023-09-19T14:13:02;18.50;99.90
29731;DHT22;16639;51.488;0.152;2023-09-19T14:15:37;18.50;99.90
29731;DHT22;16639;51.488;0.152;2023-09-19T14:18:05;18.50;99.90
29731;DHT22;16639;51.488;0.152;2023-09-19T14:20:32;18.50;99.90
29731;DHT22;16639;51.488;0.152;2023-09-19T14:23:03;18.50;99.90
29731;DHT22;16639;51.488;0.152;2023-09-19T14:25:30;18.50;99.90
29731;DHT22;16639;51.488;0.152;2023-09-19T14:27:58;21.40;99.90
29731;DHT22;16639;51.488;0.152;2023-09-19T14:30:26;18.60;99.90
29731;DHT22;16639;51.488;0.152;2023-09-19T14:32:54;18.60;99.90
29731;DHT22;16639;51.488;0.152;2023-09-19T14:35:21;18.70;99.90
29731;DHT22;16639;51.488;0.152;2023-09-19T14:37:50;18.70;99.90
29731;DHT22;16639;51.488;0.152;2023-09-19T14:40:17;18.70;99.90
29731;DHT22;16639;51.488;0.152;2023-09-19T14:42:45;18.80;99.90
29731;DHT22;16639;51.488;0.152;2023-09-19T14:45:17;18.80;99.90
29731;DHT22;16639;51.488;0.152;2023-09-19T14:47:46;18.90;99.90
29731;DHT22;16639;51.488;0.152;2023-09-19T14:50:14;18.90;99.90
29731;DHT22;16639;51.488;0.152;2023-09-19T14:52:44;18.90;99.90
29731;DHT22;16639;51.488;0.152;2023-09-19T14:55:11;18.90;99.90
29731;DHT22;16639;51.488;0.152;2023-09-19T14:57:42;18.90;99.90
29731;DHT22;16639;51.488;0.152;2023-09-19T15:00:12;18.90;99.90
29731;DHT22;16639;51.488;0.152;2023-09-19T15:02:41;19.00;99.90
29731;DHT22;16639;51.488;0.152;2023-09-19T15:05:09;18.90;99.90
29731;DHT22;16639;51.488;0.152;2023-09-19T15:07:36;19.00;99.90
29731;DHT22;16639;51.488;0.152;2023-09-19T15:10:05;19.00;99.90
29731;DHT22;16639;51.488;0.152;2023-09-19T15:12:37;19.10;99.90
29731;DHT22;16639;51.488;0.152;2023-09-19T15:15:06;19.10;99.90
29731;DHT22;16639;51.488;0.152;2023-09-19T15:17:36;19.10;99.90
29731;DHT22;16639;51.488;0.152;2023-09-19T15:20:05;19.10;99.90
29731;DHT22;16639;51.488;0.152;2023-09-19T15:22:36;19.10;99.90
29731;DHT22;16639;51.488;0.152;2023-09-19T15:25:04;19.10;99.90
29731;DHT22;16639;51.488;0.152;2023-09-19T15:27:33;19.10;99.90
29731;DHT22;16639;51.488;0.152;2023-09-19T15:30:00;19.20;99.90
29731;DHT22;16639;51.488;0.152;2023-09-19T15:32:30;19.00;99.90
29731;DHT22;16639;51.488;0.152;2023-09-19T15:35:02;19.00;99.90
29731;DHT22;16639;51.488;0.152;2023-09-19T15:37:29;19.00;99.90
29731;DHT22;16639;51.488;0.152;2023-09-19T15:39:58;19.00;99.90
29731;DHT22;16639;51.488;0.152;2023-09-19T15:42:26;19.00;99.90
29731;DHT22;16639;51.488;0.152;2023-09-19T15:44:54;19.00;99.90
29731;DHT22;16639;51.488;0.152;2023-09-19T15:47:22;19.00;99.90
29731;DHT22;16639;51.488;0.152;2023-09-19T15:49:50;19.00;99.90
29731;DHT22;16639;51.488;0.152;2023-09-19T15:52:18;19.00;99.90
29731;DHT22;16639;51.488;0.152;2023-09-19T15:54:46;19.10;99.90
29731;DHT22;16639;51.488;0.152;2023-09-19T15:57:15;19.10;99.90
29731;DHT22;16639;51.488;0.152;2023-09-19T15:59:42;19.00;99.90
29731;DHT22;16639;51.488;0.152;2023-09-19T16:02:12;19.00;99.90
29731;DHT22;16639;51.488;0.152;2023-09-19T16:04:39;19.00;99.90
29731;DHT22;16639;51.488;0.152;2023-09-19T16:07:07;19.00;99.90
29731;DHT22;16639;51.488;0.152;2023-09-19T16:09:35;19.00;99.90
29731;DHT22;16639;51.488;0.152;2023-09-19T16:12:05;18.90;99.90
29731;DHT22;16639;51.488;0.152;2023-09-19T16:14:33;18.90;99.90
29731;DHT22;16639;51.488;0.152;2023-09-19T16:17:01;19.90;99.90
29731;DHT22;16639;51.488;0.152;2023-09-19T16:19:31;18.80;99.90
29731;DHT22;16639;51.488;0.152;2023-09-19T16:21:59;18.80;99.90
29731;DHT22;16639;51.488;0.152;2023-09-19T16:24:28;18.80;99.90
29731;DHT22;16639;51.488;0.152;2023-09-19T16:26:56;18.70;99.90
29731;DHT22;16639;51.488;0.152;2023-09-19T16:29:23;18.60;99.90
29731;DHT22;16639;51.488;0.152;2023-09-19T16:31:52;18.70;99.90
29731;DHT22;16639;51.488;0.152;2023-09-19T16:34:19;18.70;99.90
29731;DHT22;16639;51.488;0.152;2023-09-19T16:36:47;18.70;99.90
29731;DHT22;16639;51.488;0.152;2023-09-19T16:39:15;18.70;99.90
29731;DHT22;16639;51.488;0.152;2023-09-19T16:41:42;18.70;99.90
29731;DHT22;16639;51.488;0.152;2023-09-19T16:44:10;18.70;99.90
29731;DHT22;16639;51.488;0.152;2023-09-19T16:46:41;18.70;99.90
29731;DHT22;16639;51.488;0.152;2023-09-19T16:49:08;18.70;99.90
29731;DHT22;16639;51.488;0.152;2023-09-19T16:51:36;18.60;99.90